Time;durP1;ratioP1;P1;durP2;ratioP2;P2;SDS_P1;SDS_P2;PMS_P1;PMS_P2;Temp;Humidity;BMP_temperature;BMP_pressure;BME280_temperature;BME280_humidity;BME280_pressure;Samples;Min_cycle;Max_cycle;Signal;HPM_P1;HPM_P2
2023/01/03 00:01:53;;;;;;;;;15.25;15.25;;;;;;;;5077024;28;11580;-78
2023/01/03 00:04:21;;;;;;;;;14.25;14.25;;;;;;;;5078116;28;11634;-77
2023/01/03 00:06:51;;;;;;;;;20.00;17.75;;;;;;;;5062457;28;11610;-78
2023/01/03 00:09:20;;;;;;;;;22.75;18.00;;;;;;;;5076174;28;11527;-78
2023/01/03 00:14:36;;;;;;;;;17.00;17.00;;;;;;;;5066528;28;11497;-78
2023/01/03 00:17:05;;;;;;;;;20.50;18.50;;;;;;;;5067106;28;11519;-78
2023/01/03 00:19:35;;;;;;;;;15.75;15.50;;;;;;;;5079359;28;11507;-78
2023/01/03 00:22:03;;;;;;;;;17.25;16.00;;;;;;;;5080054;28;11513;-78
2023/01/03 00:24:30;;;;;;;;;19.75;17.50;;;;;;;;5083194;28;11536;-78
2023/01/03 00:26:59;;;;;;;;;19.00;17.25;;;;;;;;5080169;28;11484;-78
2023/01/03 00:29:27;;;;;;;;;20.25;14.25;;;;;;;;5079654;28;11547;-78
2023/01/03 00:31:55;;;;;;;;;20.75;19.00;;;;;;;;5078081;28;11480;-78
2023/01/03 00:34:22;;;;;;;;;26.00;23.00;;;;;;;;5061853;28;11515;-78
2023/01/03 00:36:50;;;;;;;;;16.50;16.50;;;;;;;;5058607;28;11531;-78
2023/01/03 00:39:17;;;;;;;;;16.00;14.75;;;;;;;;5060553;28;11493;-78
2023/01/03 00:41:45;;;;;;;;;24.25;22.50;;;;;;;;5062942;28;11533;-78
2023/01/03 00:44:15;;;;;;;;;29.00;24.75;;;;;;;;5081806;28;11602;-78
2023/01/03 00:46:42;;;;;;;;;26.00;22.00;;;;;;;;5065497;28;11507;-78
2023/01/03 00:49:10;;;;;;;;;26.25;26.25;;;;;;;;5048572;28;11525;-78
2023/01/03 00:51:39;;;;;;;;;23.75;21.75;;;;;;;;5059340;28;11502;-78
2023/01/03 00:54:09;;;;;;;;;23.75;23.00;;;;;;;;5061547;28;11521;-78
2023/01/03 00:56:38;;;;;;;;;25.50;23.75;;;;;;;;5060544;28;12415;-78
2023/01/03 00:59:06;;;;;;;;;32.00;27.75;;;;;;;;5055158;28;11557;-79
2023/01/03 01:01:37;;;;;;;;;22.25;22.25;;;;;;;;5039275;28;11602;-78
2023/01/03 01:04:06;;;;;;;;;26.75;26.25;;;;;;;;5061678;28;11564;-78
2023/01/03 01:06:35;;;;;;;;;32.00;26.75;;;;;;;;5065973;28;11552;-78
2023/01/03 01:09:06;;;;;;;;;26.75;23.25;;;;;;;;5061804;28;11570;-78
2023/01/03 01:11:34;;;;;;;;;27.25;22.25;;;;;;;;5066530;28;11548;-78
2023/01/03 01:14:01;;;;;;;;;27.50;22.75;;;;;;;;5062777;28;11554;-77
2023/01/03 01:16:31;;;;;;;;;24.50;23.50;;;;;;;;5067084;28;11569;-78
2023/01/03 01:19:01;;;;;;;;;32.00;29.50;;;;;;;;5048515;28;11556;-79
2023/01/03 01:21:30;;;;;;;;;34.00;31.25;;;;;;;;5042694;28;11519;-79
2023/01/03 01:23:58;;;;;;;;;30.50;27.25;;;;;;;;5065781;28;11525;-78
2023/01/03 01:26:26;;;;;;;;;32.75;31.50;;;;;;;;5067559;28;11511;-78
2023/01/03 01:28:55;;;;;;;;;29.75;28.25;;;;;;;;5062908;28;11562;-80
2023/01/03 01:31:25;;;;;;;;;38.00;37.50;;;;;;;;5068653;28;12453;-78
2023/01/03 01:33:54;;;;;;;;;33.25;31.50;;;;;;;;5062167;28;11677;-80
2023/01/03 01:36:25;;;;;;;;;28.25;27.25;;;;;;;;5069144;28;11555;-78
2023/01/03 01:38:56;;;;;;;;;34.25;30.25;;;;;;;;5064210;28;11570;-78
2023/01/03 01:46:51;;;;;;;;;28.00;27.25;;;;;;;;5056614;28;11571;-78
2023/01/03 01:49:22;;;;;;;;;29.75;23.75;;;;;;;;5058628;28;12395;-78
2023/01/03 01:51:52;;;;;;;;;23.00;20.75;;;;;;;;5064170;28;11671;-78
2023/01/03 01:54:20;;;;;;;;;26.00;26.00;;;;;;;;5040515;28;11632;-78
2023/01/03 01:56:49;;;;;;;;;29.50;27.75;;;;;;;;5043588;28;11526;-78
2023/01/03 01:59:17;;;;;;;;;31.25;26.00;;;;;;;;5061972;28;11670;-78
2023/01/03 02:01:47;;;;;;;;;27.00;23.50;;;;;;;;5058930;28;11572;-78
2023/01/03 02:04:19;;;;;;;;;25.50;25.50;;;;;;;;5041851;28;11691;-78
2023/01/03 02:06:47;;;;;;;;;25.50;25.50;;;;;;;;5041551;28;11601;-78
2023/01/03 02:09:16;;;;;;;;;25.50;25.50;;;;;;;;5061065;28;11597;-78
2023/01/03 02:11:50;;;;;;;;;23.75;23.75;;;;;;;;5028786;28;11536;-78
2023/01/03 02:14:35;;;;;;;;;18.75;18.75;;;;;;;;5059687;28;11665;-78
2023/01/03 02:17:10;;;;;;;;;27.25;27.00;;;;;;;;5058929;28;11530;-78
2023/01/03 02:20:03;;;;;;;;;23.00;21.75;;;;;;;;5061150;28;11565;-76
2023/01/03 02:23:04;;;;;;;;;22.50;21.00;;;;;;;;5042916;28;11655;-78
2023/01/03 02:26:06;;;;;;;;;26.00;24.25;;;;;;;;5030789;28;11547;-78
2023/01/03 02:29:00;;;;;;;;;30.25;26.50;;;;;;;;5058653;28;11539;-79
2023/01/03 02:31:36;;;;;;;;;26.00;24.00;;;;;;;;5058553;28;12351;-78
2023/01/03 02:34:10;;;;;;;;;27.50;24.75;;;;;;;;5044313;28;12359;-78
2023/01/03 02:36:48;;;;;;;;;24.50;22.50;;;;;;;;5043960;28;11619;-78
2023/01/03 02:39:23;;;;;;;;;24.25;24.25;;;;;;;;5062806;28;11566;-78
2023/01/03 02:42:56;;;;;;;;;22.25;22.25;;;;;;;;5055316;28;11540;-79
2023/01/03 02:44:49;;;;;;;;;33.00;28.25;;;;;;;;5043827;28;11606;-78
2023/01/03 02:47:21;;;;;;;;;27.50;21.25;;;;;;;;5060505;28;12347;-78
2023/01/03 02:49:51;;;;;;;;;25.50;25.50;;;;;;;;5041777;28;11553;-78
2023/01/03 02:52:22;;;;;;;;;25.00;21.25;;;;;;;;5040200;28;11577;-78
2023/01/03 02:54:57;;;;;;;;;20.50;20.50;;;;;;;;5058926;28;12394;-78
2023/01/03 02:57:29;;;;;;;;;24.50;20.75;;;;;;;;5041877;28;12344;-78
2023/01/03 03:00:00;;;;;;;;;19.75;18.25;;;;;;;;5080288;28;11577;-78
2023/01/03 03:02:33;;;;;;;;;21.25;21.25;;;;;;;;5075376;28;11505;-78
2023/01/03 03:05:04;;;;;;;;;18.00;15.00;;;;;;;;5068255;28;11607;-78
2023/01/03 03:07:35;;;;;;;;;21.50;19.25;;;;;;;;5061263;28;12245;-78
2023/01/03 03:15:40;;;;;;;;;18.00;18.00;;;;;;;;5064197;28;12348;-78
2023/01/03 03:18:19;;;;;;;;;28.25;24.75;;;;;;;;5056374;28;11562;-78
2023/01/03 03:26:25;;;;;;;;;21.00;21.00;;;;;;;;5050260;28;11518;-78
2023/01/03 03:28:57;;;;;;;;;23.50;21.00;;;;;;;;5081603;28;11512;-78
2023/01/03 03:31:32;;;;;;;;;21.00;21.00;;;;;;;;5062700;28;11554;-78
2023/01/03 03:34:06;;;;;;;;;20.75;18.50;;;;;;;;5060604;27;11552;-77
2023/01/03 03:36:39;;;;;;;;;26.50;21.75;;;;;;;;5077361;28;12261;-77
2023/01/03 03:44:59;;;;;;;;;23.50;23.50;;;;;;;;5054839;28;11550;-77
2023/01/03 03:45:01;;;;;;;;;23.00;20.50;;;;;;;;5078791;28;11598;-77
2023/01/03 03:47:37;;;;;;;;;20.50;19.00;;;;;;;;5084809;28;11631;-78
2023/01/03 03:50:07;;;;;;;;;16.25;16.25;;;;;;;;5081073;28;11511;-78
2023/01/03 03:52:36;;;;;;;;;22.50;19.00;;;;;;;;5056859;28;11496;-77
2023/01/03 03:55:08;;;;;;;;;21.50;17.00;;;;;;;;5081565;28;11659;-77
2023/01/03 03:57:37;;;;;;;;;22.00;11.75;;;;;;;;5073217;28;11529;-77
2023/01/03 04:00:11;;;;;;;;;20.00;18.50;;;;;;;;5044262;28;11541;-77
2023/01/03 04:02:41;;;;;;;;;20.00;18.00;;;;;;;;5063181;28;11555;-77
2023/01/03 04:05:12;;;;;;;;;19.00;19.00;;;;;;;;5064901;28;11505;-77
2023/01/03 04:07:39;;;;;;;;;16.50;16.25;;;;;;;;5062372;28;11592;-76
2023/01/03 04:10:08;;;;;;;;;18.25;18.25;;;;;;;;5078421;28;11544;-77
2023/01/03 04:12:36;;;;;;;;;18.75;17.00;;;;;;;;5075734;28;11724;-77
2023/01/03 04:15:05;;;;;;;;;19.25;17.25;;;;;;;;5079724;28;12310;-77
2023/01/03 04:17:33;;;;;;;;;17.50;16.50;;;;;;;;5044336;28;11573;-76
2023/01/03 04:20:00;;;;;;;;;18.75;16.75;;;;;;;;5068191;28;11548;-77
2023/01/03 04:22:29;;;;;;;;;18.00;18.00;;;;;;;;5081063;28;11641;-77
2023/01/03 04:24:57;;;;;;;;;18.25;18.25;;;;;;;;5084021;28;11503;-77
2023/01/03 04:27:24;;;;;;;;;17.00;14.50;;;;;;;;5084581;28;11575;-78
2023/01/03 04:29:52;;;;;;;;;15.00;15.00;;;;;;;;5082479;28;11485;-78
2023/01/03 04:32:19;;;;;;;;;19.00;15.75;;;;;;;;5032637;28;11719;-77
2023/01/03 04:34:47;;;;;;;;;18.75;16.75;;;;;;;;5061042;28;11519;-77
2023/01/03 04:37:14;;;;;;;;;14.50;14.50;;;;;;;;5080306;28;11493;-77
2023/01/03 04:39:43;;;;;;;;;14.25;14.25;;;;;;;;5065258;28;11495;-77
2023/01/03 04:44:52;;;;;;;;;18.50;17.25;;;;;;;;5078792;28;12339;-77
2023/01/03 04:47:20;;;;;;;;;16.25;16.25;;;;;;;;5063296;28;11603;-78
2023/01/03 04:49:48;;;;;;;;;19.50;19.50;;;;;;;;5050938;28;11529;-77
2023/01/03 04:52:15;;;;;;;;;20.75;19.25;;;;;;;;5078885;28;12318;-76
2023/01/03 04:54:45;;;;;;;;;21.50;20.25;;;;;;;;5071495;28;11519;-77
2023/01/03 04:57:12;;;;;;;;;26.75;20.50;;;;;;;;5047742;28;11542;-77
2023/01/03 04:59:40;;;;;;;;;22.50;19.75;;;;;;;;5067638;28;11529;-77
2023/01/03 05:02:07;;;;;;;;;17.50;15.00;;;;;;;;5063210;28;11544;-78
2023/01/03 05:04:34;;;;;;;;;18.25;18.25;;;;;;;;5081936;28;11543;-77
2023/01/03 05:07:01;;;;;;;;;16.75;15.75;;;;;;;;5076102;28;12353;-77
2023/01/03 05:09:29;;;;;;;;;25.25;17.00;;;;;;;;5043408;28;11504;-77
2023/01/03 05:11:58;;;;;;;;;17.50;13.00;;;;;;;;5060742;28;11519;-77
2023/01/03 05:14:25;;;;;;;;;17.00;13.00;;;;;;;;5097485;28;11443;-77
2023/01/03 05:16:53;;;;;;;;;13.25;12.25;;;;;;;;5080548;28;11441;-77
2023/01/03 05:19:20;;;;;;;;;20.00;16.50;;;;;;;;5067867;28;11521;-77
2023/01/03 05:27:19;;;;;;;;;13.75;12.50;;;;;;;;5006255;28;11422;-77
2023/01/03 05:29:49;;;;;;;;;13.00;13.00;;;;;;;;5053342;28;11452;-77
2023/01/03 05:32:17;;;;;;;;;9.00;9.00;;;;;;;;5082582;28;11449;-77
2023/01/03 05:34:44;;;;;;;;;12.50;12.00;;;;;;;;5065071;28;11433;-77
2023/01/03 05:37:12;;;;;;;;;14.75;13.50;;;;;;;;5065514;28;11519;-76
2023/01/03 05:39:39;;;;;;;;;9.75;9.00;;;;;;;;5064498;28;12297;-77
2023/01/03 05:42:06;;;;;;;;;8.50;8.50;;;;;;;;5063326;28;11451;-77
2023/01/03 05:44:35;;;;;;;;;7.50;7.00;;;;;;;;5079607;28;11493;-77
2023/01/03 05:47:04;;;;;;;;;8.75;8.00;;;;;;;;5078677;28;11408;-77
2023/01/03 05:49:33;;;;;;;;;8.00;7.75;;;;;;;;5063456;28;11385;-77
2023/01/03 05:52:00;;;;;;;;;9.75;9.75;;;;;;;;5020132;28;11508;-77
2023/01/03 05:54:28;;;;;;;;;13.25;12.25;;;;;;;;5056435;28;11564;-78
2023/01/03 05:56:55;;;;;;;;;13.75;11.50;;;;;;;;5065625;28;11474;-77
2023/01/03 05:59:25;;;;;;;;;13.50;13.50;;;;;;;;5070377;28;11437;-78
2023/01/03 06:01:54;;;;;;;;;9.50;8.25;;;;;;;;5072851;28;11454;-78
2023/01/03 06:04:22;;;;;;;;;7.75;7.75;;;;;;;;5061672;28;11488;-77
2023/01/03 06:06:49;;;;;;;;;10.00;9.50;;;;;;;;5074381;28;12205;-77
2023/01/03 06:09:17;;;;;;;;;9.00;8.50;;;;;;;;5068535;28;11492;-78
2023/01/03 06:11:45;;;;;;;;;11.75;9.00;;;;;;;;5060249;28;11427;-78
2023/01/03 06:14:13;;;;;;;;;7.50;7.50;;;;;;;;5038871;28;11464;-78
2023/01/03 06:19:27;;;;;;;;;5.50;4.75;;;;;;;;5066440;28;11417;-78
2023/01/03 06:21:54;;;;;;;;;6.25;6.00;;;;;;;;5059516;28;11502;-78
2023/01/03 06:24:22;;;;;;;;;8.00;6.75;;;;;;;;5061336;28;11426;-78
2023/01/03 06:26:49;;;;;;;;;8.00;6.50;;;;;;;;5037799;28;11431;-78
2023/01/03 06:29:17;;;;;;;;;8.00;7.00;;;;;;;;5072410;28;11467;-78
2023/01/03 06:31:44;;;;;;;;;2.50;2.50;;;;;;;;5069163;28;11439;-78
2023/01/03 06:34:13;;;;;;;;;3.75;3.75;;;;;;;;5056876;28;11448;-77
2023/01/03 06:36:41;;;;;;;;;8.00;7.00;;;;;;;;5063539;28;11433;-77
2023/01/03 06:39:10;;;;;;;;;8.50;6.00;;;;;;;;5069642;28;11461;-78
2023/01/03 06:41:37;;;;;;;;;7.75;7.75;;;;;;;;5049501;28;11468;-78
2023/01/03 06:44:05;;;;;;;;;7.00;7.00;;;;;;;;5076400;28;11419;-78
2023/01/03 06:55:15;;;;;;;;;12.00;9.00;;;;;;;;5034549;28;11425;-78
2023/01/03 06:57:43;;;;;;;;;11.50;8.00;;;;;;;;5060693;28;11468;-78
2023/01/03 07:00:11;;;;;;;;;7.00;7.00;;;;;;;;5039748;28;11462;-78
2023/01/03 07:02:39;;;;;;;;;8.75;8.75;;;;;;;;5057146;28;11465;-78
2023/01/03 07:05:07;;;;;;;;;8.00;8.00;;;;;;;;5027752;28;11460;-77
2023/01/03 07:07:36;;;;;;;;;9.25;9.25;;;;;;;;5040545;28;11457;-78
2023/01/03 07:10:03;;;;;;;;;16.25;9.25;;;;;;;;5042587;28;11444;-79
2023/01/03 07:15:16;;;;;;;;;11.00;9.50;;;;;;;;5054962;28;11424;-78
2023/01/03 07:17:43;;;;;;;;;9.50;8.50;;;;;;;;5042999;28;11451;-79
2023/01/03 07:20:11;;;;;;;;;8.75;8.75;;;;;;;;5040980;28;11443;-79
2023/01/03 07:22:39;;;;;;;;;5.50;5.50;;;;;;;;5059557;28;12317;-79
2023/01/03 07:25:08;;;;;;;;;10.75;8.50;;;;;;;;5059530;28;11470;-78
2023/01/03 07:27:35;;;;;;;;;8.75;8.00;;;;;;;;5025849;28;11487;-79
2023/01/03 07:30:03;;;;;;;;;7.00;7.00;;;;;;;;5057344;28;12228;-78
2023/01/03 07:32:30;;;;;;;;;7.00;7.00;;;;;;;;5042921;28;11401;-78
2023/01/03 07:34:58;;;;;;;;;3.00;3.00;;;;;;;;5042950;28;11470;-76
2023/01/03 07:37:25;;;;;;;;;3.75;3.75;;;;;;;;5058898;28;11496;-75
2023/01/03 07:39:54;;;;;;;;;9.00;9.00;;;;;;;;5057881;28;11417;-73
2023/01/03 07:45:07;;;;;;;;;13.00;11.50;;;;;;;;5059511;28;11426;-75
2023/01/03 07:47:35;;;;;;;;;19.75;12.00;;;;;;;;5058447;28;11467;-74
2023/01/03 07:50:02;;;;;;;;;12.75;12.75;;;;;;;;5060244;28;11429;-75
2023/01/03 07:52:29;;;;;;;;;9.25;9.25;;;;;;;;5057331;28;11578;-75
2023/01/03 07:54:58;;;;;;;;;15.00;10.75;;;;;;;;5058118;28;11405;-74
2023/01/03 07:57:26;;;;;;;;;12.00;9.25;;;;;;;;5052504;28;12571;-75
2023/01/03 07:59:54;;;;;;;;;10.50;10.50;;;;;;;;5058960;28;11618;-78
2023/01/03 08:02:21;;;;;;;;;10.50;10.50;;;;;;;;5060342;28;11588;-75
2023/01/03 08:04:48;;;;;;;;;10.00;10.00;;;;;;;;5059809;28;11439;-74
2023/01/03 08:07:15;;;;;;;;;12.00;8.75;;;;;;;;5058675;28;12248;-75
2023/01/03 08:15:14;;;;;;;;;14.75;14.75;;;;;;;;5060161;28;11779;-78
2023/01/03 08:17:41;;;;;;;;;12.50;12.50;;;;;;;;5058492;28;11659;-75
2023/01/03 08:20:09;;;;;;;;;14.75;13.00;;;;;;;;5060787;28;11484;-75
2023/01/03 08:22:36;;;;;;;;;12.00;12.00;;;;;;;;5059985;28;11414;-75
2023/01/03 08:25:04;;;;;;;;;18.50;17.00;;;;;;;;5061543;28;11443;-75
2023/01/03 08:27:33;;;;;;;;;18.25;18.25;;;;;;;;5060986;28;11491;-74
2023/01/03 08:30:01;;;;;;;;;14.75;14.75;;;;;;;;5065704;28;11473;-75
2023/01/03 08:32:29;;;;;;;;;18.75;14.50;;;;;;;;5062066;28;11451;-75
2023/01/03 08:34:57;;;;;;;;;12.75;10.50;;;;;;;;5064588;28;11447;-75
2023/01/03 08:37:24;;;;;;;;;16.75;15.25;;;;;;;;5060566;28;12283;-74
2023/01/03 08:39:54;;;;;;;;;17.50;14.75;;;;;;;;5044479;28;11497;-75
2023/01/03 08:42:22;;;;;;;;;17.25;17.25;;;;;;;;5060991;28;11541;-74
2023/01/03 08:44:55;;;;;;;;;22.25;20.00;;;;;;;;5063996;28;11537;-74
2023/01/03 08:47:23;;;;;;;;;22.50;19.75;;;;;;;;5062989;28;11501;-75
2023/01/03 08:49:50;;;;;;;;;11.50;10.75;;;;;;;;5056303;28;11570;-73
2023/01/03 08:52:17;;;;;;;;;22.50;21.50;;;;;;;;5056655;28;11555;-73
2023/01/03 08:54:44;;;;;;;;;21.50;19.75;;;;;;;;5056841;28;11513;-73
2023/01/03 08:57:12;;;;;;;;;24.00;19.75;;;;;;;;5060043;28;11533;-73
2023/01/03 08:59:39;;;;;;;;;21.25;21.00;;;;;;;;5062560;28;11604;-73
2023/01/03 09:02:08;;;;;;;;;20.25;19.75;;;;;;;;5064748;28;11580;-74
2023/01/03 09:04:36;;;;;;;;;25.50;22.00;;;;;;;;5064452;28;11618;-73
2023/01/03 09:07:04;;;;;;;;;26.00;22.00;;;;;;;;5062944;28;11529;-72
2023/01/03 09:09:32;;;;;;;;;26.00;22.75;;;;;;;;5060315;28;11534;-73
2023/01/03 09:11:59;;;;;;;;;23.50;23.50;;;;;;;;5065478;28;11520;-74
2023/01/03 09:14:26;;;;;;;;;23.25;18.75;;;;;;;;5065751;28;12357;-75
2023/01/03 09:16:54;;;;;;;;;26.25;23.00;;;;;;;;5041484;28;12371;-77
2023/01/03 09:19:23;;;;;;;;;26.00;22.25;;;;;;;;5049332;28;12890;-78
2023/01/03 09:21:51;;;;;;;;;28.50;23.50;;;;;;;;5043257;28;11572;-73
2023/01/03 09:24:18;;;;;;;;;31.00;25.00;;;;;;;;5044763;28;11511;-74
2023/01/03 09:26:45;;;;;;;;;25.75;21.00;;;;;;;;5065208;28;11467;-73
2023/01/03 09:29:13;;;;;;;;;17.75;17.75;;;;;;;;5065613;28;11504;-74
2023/01/03 09:31:40;;;;;;;;;22.00;20.25;;;;;;;;5067398;28;11492;-74
2023/01/03 09:34:07;;;;;;;;;19.50;16.75;;;;;;;;5051486;28;11467;-74
2023/01/03 09:36:37;;;;;;;;;22.00;20.00;;;;;;;;5071819;28;11638;-74
2023/01/03 09:39:05;;;;;;;;;24.25;22.50;;;;;;;;5069987;28;11481;-74
2023/01/03 09:41:33;;;;;;;;;19.50;19.50;;;;;;;;5072497;28;11510;-74
2023/01/03 09:44:04;;;;;;;;;25.50;22.75;;;;;;;;5069712;28;11521;-74
2023/01/03 09:46:32;;;;;;;;;19.75;17.75;;;;;;;;5069866;28;11495;-74
2023/01/03 09:49:00;;;;;;;;;21.00;21.00;;;;;;;;5070338;28;11538;-74
2023/01/03 10:06:13;;;;;;;;;20.25;20.00;;;;;;;;5069505;28;11440;-74
2023/01/03 10:08:52;;;;;;;;;20.75;20.50;;;;;;;;5069342;28;12313;-74
2023/01/03 10:11:26;;;;;;;;;19.75;18.25;;;;;;;;5069208;28;11588;-74
2023/01/03 10:14:04;;;;;;;;;23.50;21.00;;;;;;;;5070065;28;11504;-74
2023/01/03 10:16:40;;;;;;;;;22.00;20.50;;;;;;;;5053344;28;11569;-75
2023/01/03 10:19:35;;;;;;;;;15.50;15.50;;;;;;;;5072707;28;11599;-74
2023/01/03 10:22:09;;;;;;;;;27.75;21.50;;;;;;;;5057965;28;11537;-75
2023/01/03 10:24:43;;;;;;;;;22.00;21.50;;;;;;;;5070076;28;11447;-74
2023/01/03 10:27:16;;;;;;;;;15.75;14.25;;;;;;;;5053181;28;11632;-74
2023/01/03 10:29:44;;;;;;;;;21.25;16.75;;;;;;;;5045380;28;11480;-74
2023/01/03 10:32:36;;;;;;;;;21.75;20.75;;;;;;;;5068278;28;11541;-74
2023/01/03 10:35:18;;;;;;;;;16.00;16.00;;;;;;;;5069872;28;11499;-77
2023/01/03 10:37:45;;;;;;;;;20.50;18.25;;;;;;;;5064701;28;11495;-74
2023/01/03 10:40:14;;;;;;;;;16.25;16.25;;;;;;;;5068210;28;11523;-74
2023/01/03 10:42:44;;;;;;;;;23.50;15.50;;;;;;;;5068733;28;11504;-74
2023/01/03 10:45:15;;;;;;;;;18.75;17.00;;;;;;;;5072137;28;12482;-74
2023/01/03 10:47:43;;;;;;;;;24.25;19.75;;;;;;;;5070497;28;11532;-75
2023/01/03 10:50:22;;;;;;;;;11.50;11.50;;;;;;;;5066913;28;12234;-74
2023/01/03 10:52:56;;;;;;;;;17.00;17.00;;;;;;;;5050107;28;11577;-74
2023/01/03 10:55:25;;;;;;;;;19.75;19.00;;;;;;;;5069595;28;11562;-74
2023/01/03 10:58:00;;;;;;;;;20.50;15.50;;;;;;;;5047649;28;11547;-74
2023/01/03 11:00:31;;;;;;;;;10.25;10.00;;;;;;;;5063478;28;11464;-75
2023/01/03 11:03:11;;;;;;;;;15.25;15.25;;;;;;;;5049634;28;11188;-73
2023/01/03 11:05:40;;;;;;;;;17.75;14.50;;;;;;;;5062926;28;11526;-74
2023/01/03 11:08:15;;;;;;;;;13.25;13.25;;;;;;;;5065184;28;11439;-74
2023/01/03 11:10:52;;;;;;;;;15.50;15.00;;;;;;;;5064524;28;11444;-75
2023/01/03 11:13:33;;;;;;;;;17.50;15.75;;;;;;;;5063990;28;12262;-74
2023/01/03 11:16:02;;;;;;;;;13.25;11.00;;;;;;;;5064426;28;11533;-73
2023/01/03 11:18:31;;;;;;;;;17.50;16.00;;;;;;;;5063499;28;11256;-74
2023/01/03 11:21:13;;;;;;;;;14.75;11.00;;;;;;;;5043670;28;11469;-75
2023/01/03 11:24:04;;;;;;;;;16.00;15.50;;;;;;;;5054911;28;11463;-74
2023/01/03 11:26:41;;;;;;;;;20.00;15.75;;;;;;;;5056503;28;11247;-75
2023/01/03 11:29:56;;;;;;;;;20.75;18.25;;;;;;;;5067662;28;11299;-73
2023/01/03 11:32:42;;;;;;;;;17.00;17.00;;;;;;;;5061406;28;11495;-75
2023/01/03 11:35:36;;;;;;;;;19.00;19.00;;;;;;;;5051321;28;11470;-73
2023/01/03 11:38:16;;;;;;;;;20.25;17.50;;;;;;;;5067599;28;11494;-76
2023/01/03 11:40:49;;;;;;;;;15.75;15.75;;;;;;;;5046123;28;11197;-74
2023/01/03 11:43:31;;;;;;;;;15.25;13.50;;;;;;;;5068272;28;11477;-74
2023/01/03 11:46:18;;;;;;;;;16.25;15.00;;;;;;;;5061721;28;11231;-75
2023/01/03 11:48:59;;;;;;;;;15.75;12.75;;;;;;;;5060313;28;11221;-75
2023/01/03 11:51:32;;;;;;;;;17.25;11.50;;;;;;;;5061989;28;11340;-77
2023/01/03 11:54:05;;;;;;;;;11.75;11.75;;;;;;;;5041133;28;11199;-78
2023/01/03 11:56:36;;;;;;;;;13.00;13.00;;;;;;;;5047546;28;11922;-75
2023/01/03 11:59:31;;;;;;;;;16.75;15.50;;;;;;;;5056068;28;11329;-76
2023/01/03 12:02:46;;;;;;;;;16.75;15.25;;;;;;;;5061427;28;11117;-75
2023/01/03 12:05:38;;;;;;;;;14.75;12.00;;;;;;;;5037173;28;11970;-75
2023/01/03 12:08:19;;;;;;;;;13.00;12.00;;;;;;;;5022421;28;11117;-75
2023/01/03 12:10:52;;;;;;;;;12.50;12.50;;;;;;;;5053576;28;11130;-76
2023/01/03 12:13:27;;;;;;;;;13.25;13.25;;;;;;;;5065574;28;11139;-76
2023/01/03 12:16:02;;;;;;;;;17.00;14.00;;;;;;;;5064836;28;11171;-75
2023/01/03 12:18:38;;;;;;;;;18.75;14.75;;;;;;;;5078099;28;11169;-75
2023/01/03 12:21:09;;;;;;;;;16.50;14.00;;;;;;;;5078196;28;11202;-74
2023/01/03 12:23:41;;;;;;;;;11.00;11.00;;;;;;;;5076515;28;11048;-76
2023/01/03 12:26:11;;;;;;;;;15.50;13.75;;;;;;;;5063945;28;11256;-76
2023/01/03 12:28:42;;;;;;;;;19.00;16.00;;;;;;;;5081507;28;11141;-75
2023/01/03 12:31:18;;;;;;;;;15.75;15.75;;;;;;;;5077879;28;11160;-76
2023/01/03 12:33:53;;;;;;;;;16.75;16.00;;;;;;;;5045637;28;11195;-74
2023/01/03 12:36:31;;;;;;;;;16.75;16.00;;;;;;;;5083750;28;11124;-74
2023/01/03 12:39:06;;;;;;;;;16.50;16.50;;;;;;;;5078878;28;11099;-75
2023/01/03 12:41:38;;;;;;;;;11.00;10.50;;;;;;;;5080761;28;10971;-75
2023/01/03 12:44:12;;;;;;;;;12.25;12.25;;;;;;;;5082513;28;10932;-76
2023/01/03 12:46:45;;;;;;;;;15.25;11.00;;;;;;;;5082102;28;10643;-75
2023/01/03 12:49:16;;;;;;;;;10.00;10.00;;;;;;;;5078206;28;10680;-75
2023/01/03 12:51:45;;;;;;;;;11.75;11.50;;;;;;;;5063898;28;10645;-76
2023/01/03 12:54:26;;;;;;;;;15.25;15.25;;;;;;;;5063444;28;10717;-75
2023/01/03 12:57:25;;;;;;;;;8.50;8.25;;;;;;;;5065524;28;10822;-79
2023/01/03 13:00:08;;;;;;;;;14.25;11.75;;;;;;;;5078987;28;10600;-76
2023/01/03 13:02:46;;;;;;;;;10.25;10.25;;;;;;;;5075208;28;10694;-74
2023/01/03 13:05:18;;;;;;;;;10.75;10.75;;;;;;;;5071650;28;10618;-74
2023/01/03 13:07:52;;;;;;;;;10.00;9.75;;;;;;;;5062990;28;10989;-75
2023/01/03 13:10:21;;;;;;;;;8.00;8.00;;;;;;;;5081059;28;10623;-77
2023/01/03 13:12:51;;;;;;;;;10.75;10.75;;;;;;;;5083444;28;10666;-76
2023/01/03 13:15:26;;;;;;;;;12.75;11.50;;;;;;;;5063614;28;10647;-76
2023/01/03 13:17:54;;;;;;;;;8.75;8.75;;;;;;;;5078561;28;10615;-76
2023/01/03 13:20:35;;;;;;;;;8.75;8.75;;;;;;;;5078575;28;10428;-76
2023/01/03 13:23:32;;;;;;;;;11.50;11.50;;;;;;;;5076858;28;10539;-75
2023/01/03 13:26:18;;;;;;;;;10.75;9.75;;;;;;;;5067365;28;10448;-75
2023/01/03 13:28:45;;;;;;;;;7.00;7.00;;;;;;;;5057834;28;10555;-76
2023/01/03 13:31:36;;;;;;;;;9.00;9.00;;;;;;;;5041798;28;10400;-75
2023/01/03 13:34:31;;;;;;;;;10.00;8.00;;;;;;;;5077241;28;10481;-75
2023/01/03 13:37:18;;;;;;;;;10.50;9.75;;;;;;;;5092085;28;10550;-75
2023/01/03 13:39:58;;;;;;;;;10.25;10.25;;;;;;;;5048723;28;10608;-75
2023/01/03 13:42:29;;;;;;;;;13.50;11.75;;;;;;;;5081736;28;10557;-75
2023/01/03 13:45:34;;;;;;;;;12.00;10.00;;;;;;;;5082181;27;10540;-74
2023/01/03 13:48:14;;;;;;;;;10.25;10.25;;;;;;;;5077950;28;10663;-75
2023/01/03 13:50:42;;;;;;;;;9.75;8.50;;;;;;;;5077850;28;10634;-76
2023/01/03 13:53:28;;;;;;;;;12.25;10.75;;;;;;;;5044319;28;10704;-76
2023/01/03 13:56:00;;;;;;;;;16.50;10.75;;;;;;;;5081238;28;11482;-76
2023/01/03 13:58:32;;;;;;;;;8.00;8.00;;;;;;;;5077453;28;10805;-77
2023/01/03 14:01:13;;;;;;;;;9.75;9.75;;;;;;;;5062616;28;11446;-76
2023/01/03 14:03:58;;;;;;;;;8.50;8.50;;;;;;;;5058149;28;10539;-74
2023/01/03 14:06:51;;;;;;;;;9.50;8.25;;;;;;;;5057826;28;10707;-77
2023/01/03 14:09:37;;;;;;;;;8.25;8.25;;;;;;;;5075588;28;11607;-77
2023/01/03 14:12:23;;;;;;;;;8.75;8.75;;;;;;;;5072779;28;10700;-76
2023/01/03 14:14:54;;;;;;;;;10.25;10.25;;;;;;;;5076081;28;10606;-76
2023/01/03 14:17:25;;;;;;;;;14.75;10.50;;;;;;;;5078410;28;10832;-76
2023/01/03 14:19:55;;;;;;;;;9.50;9.00;;;;;;;;5078848;28;10836;-76
2023/01/03 14:22:23;;;;;;;;;8.75;8.75;;;;;;;;5070635;28;10785;-76
2023/01/03 14:24:55;;;;;;;;;9.00;9.00;;;;;;;;5074338;28;10829;-77
2023/01/03 14:27:28;;;;;;;;;7.25;7.25;;;;;;;;5068529;28;10640;-76
2023/01/03 14:29:56;;;;;;;;;10.00;8.25;;;;;;;;5042379;28;10883;-76
2023/01/03 14:32:25;;;;;;;;;10.00;7.50;;;;;;;;5059593;28;10862;-75
2023/01/03 14:34:53;;;;;;;;;10.50;8.50;;;;;;;;5068301;28;10822;-76
2023/01/03 14:37:23;;;;;;;;;8.00;8.00;;;;;;;;5073589;28;10766;-75
2023/01/03 14:39:54;;;;;;;;;9.50;5.50;;;;;;;;5073716;28;10836;-76
2023/01/03 14:42:23;;;;;;;;;6.00;6.00;;;;;;;;5060651;28;10957;-76
2023/01/03 14:44:54;;;;;;;;;8.50;8.50;;;;;;;;5064717;28;10804;-76
2023/01/03 14:47:22;;;;;;;;;8.25;8.25;;;;;;;;5055774;28;10895;-76
2023/01/03 14:49:51;;;;;;;;;7.50;7.25;;;;;;;;5040468;28;10966;-77
2023/01/03 14:52:27;;;;;;;;;7.00;7.00;;;;;;;;5078241;28;11004;-76
2023/01/03 14:54:57;;;;;;;;;6.75;6.75;;;;;;;;5074908;28;11788;-76
2023/01/03 14:57:27;;;;;;;;;8.75;8.75;;;;;;;;5074372;28;11046;-76
2023/01/03 14:59:57;;;;;;;;;10.75;10.75;;;;;;;;5062816;28;11003;-76
2023/01/03 15:02:25;;;;;;;;;10.75;7.50;;;;;;;;5074643;28;11027;-77
2023/01/03 15:04:54;;;;;;;;;8.00;5.00;;;;;;;;5074975;28;10886;-76
2023/01/03 15:07:29;;;;;;;;;9.50;8.00;;;;;;;;5072463;28;10944;-76
2023/01/03 15:10:05;;;;;;;;;9.25;8.50;;;;;;;;5075519;28;10964;-76
2023/01/03 15:12:36;;;;;;;;;8.00;7.25;;;;;;;;5056521;28;10902;-76
2023/01/03 15:15:09;;;;;;;;;9.00;8.00;;;;;;;;5076278;28;10938;-76
2023/01/03 15:17:38;;;;;;;;;7.50;6.75;;;;;;;;5058553;28;10908;-76
2023/01/03 15:20:08;;;;;;;;;8.75;6.75;;;;;;;;5058296;28;12082;-76
2023/01/03 15:22:40;;;;;;;;;12.25;8.00;;;;;;;;5058628;28;10974;-76
2023/01/03 15:25:16;;;;;;;;;10.00;8.00;;;;;;;;5074063;28;11040;-76
2023/01/03 15:27:47;;;;;;;;;8.75;8.25;;;;;;;;5061633;28;11681;-76
2023/01/03 15:30:24;;;;;;;;;6.75;6.75;;;;;;;;5073542;28;10909;-76
2023/01/03 15:32:59;;;;;;;;;9.00;9.00;;;;;;;;5068260;28;11040;-75
2023/01/03 15:35:40;;;;;;;;;7.00;7.00;;;;;;;;5074718;28;11078;-76
2023/01/03 15:38:15;;;;;;;;;11.25;9.50;;;;;;;;5079338;28;11087;-78
2023/01/03 15:40:46;;;;;;;;;14.50;8.50;;;;;;;;5078798;28;11051;-75
2023/01/03 15:43:20;;;;;;;;;9.50;7.00;;;;;;;;5063278;28;11033;-75
2023/01/03 15:46:00;;;;;;;;;5.25;5.25;;;;;;;;5078642;28;11216;-75
2023/01/03 15:48:28;;;;;;;;;4.25;4.25;;;;;;;;5081234;28;10818;-76
2023/01/03 15:50:56;;;;;;;;;8.00;5.25;;;;;;;;5073436;28;10982;-76
2023/01/03 15:53:26;;;;;;;;;5.00;5.00;;;;;;;;5074923;28;11802;-74
2023/01/03 15:55:59;;;;;;;;;3.50;3.50;;;;;;;;5069046;28;11740;-75
2023/01/03 15:58:29;;;;;;;;;7.00;4.25;;;;;;;;5082325;28;11576;-73
2023/01/03 16:00:57;;;;;;;;;6.00;5.00;;;;;;;;5028348;28;11104;-75